.
WxDataArchive / Data Records for 2013-09-11
2013-09-10 September 2013 2013-09-12

Data Records for Wednesday, 11 September 2013

Time	Temp	Chill	HIndex	Humid	Dewpt	 Wind 	HiWind	WindDir	Rain 	Barom 
-----	----	-----	------	-----	-----	------	------	-------	-----	----- 
00:00	81.1	81.1	83.6	63	67.3	0	1	22	0.00	30.020 
00:05	80.9	80.9	83.4	63	67.1	0	1	22	0.00	30.020 
00:10	80.9	80.9	83.5	64	67.6	0	2	22	0.00	30.020 
00:15	80.7	80.7	83.2	64	67.4	0	2	22	0.00	30.021 
00:20	80.5	80.5	83.1	65	67.6	0	1	22	0.00	30.021 
00:25	80.3	80.3	82.8	65	67.4	0	1	22	0.00	30.021 
00:30	80.1	80.1	82.6	66	67.7	0	1	22	0.00	30.022 
00:35	79.9	79.9	82.3	66	67.5	0	1	22	0.00	30.022 
00:40	79.8	79.8	82.3	67	67.8	0	1	22	0.00	30.022 
00:45	79.6	79.6	82.0	67	67.7	0	1	22	0.00	30.023 
00:50	79.4	79.4	81.8	68	67.9	0	1	22	0.00	30.023 
00:55	79.4	79.4	81.8	68	67.9	0	1	22	0.00	30.023 
01:00	79.2	79.2	81.5	68	67.7	0	1	22	0.00	30.021 
01:05	79.0	79.0	81.3	69	67.9	0	1	22	0.00	30.021 
01:10	78.8	78.8	81.1	69	67.7	0	1	22	0.00	30.021 
01:15	78.8	78.8	81.1	69	67.7	0	1	22	0.00	30.021 
01:20	78.6	78.6	80.8	69	67.6	0	1	22	0.00	30.021 
01:25	78.6	78.6	80.8	70	68.0	0	1	248	0.00	30.021 
01:30	78.5	78.5	80.7	70	67.9	0	1	248	0.00	30.021 
01:35	78.5	78.5	80.7	70	67.9	0	2	315	0.00	30.021 
01:40	78.5	78.5	80.7	70	67.9	0	2	315	0.00	30.021 
01:45	78.3	78.3	80.4	70	67.7	0	1	292	0.00	30.020 
01:50	78.3	78.3	80.5	71	68.1	0	1	292	0.00	30.020 
01:55	78.3	78.3	80.5	71	68.1	0	1	292	0.00	30.020 
02:00	78.1	78.1	80.2	72	68.3	0	1	292	0.00	30.013 
02:05	78.1	78.1	80.2	72	68.3	0	3	292	0.00	30.013 
02:10	78.1	78.1	80.2	72	68.3	0	1	292	0.00	30.013 
02:15	77.9	77.9	79.9	72	68.1	0	1	292	0.00	30.007 
02:20	77.9	77.9	80.0	73	68.5	0	1	292	0.00	30.007 
02:25	77.9	77.9	79.9	72	68.1	0	1	292	0.00	30.007 
02:30	77.7	77.7	79.7	73	68.3	0	1	292	0.00	30.014 
02:35	77.7	77.7	79.7	73	68.3	0	1	292	0.00	30.014 
02:40	77.7	77.7	79.7	73	68.3	0	1	292	0.00	30.014 
02:45	77.6	77.6	79.5	73	68.2	0	1	292	0.00	30.016 
02:50	77.4	77.4	79.3	73	68.0	0	0	---	0.00	30.016 
02:55	77.4	77.4	79.3	73	68.0	0	1	292	0.00	30.016 
03:00	77.2	77.2	79.0	74	68.3	0	1	292	0.00	30.015 
03:05	77.0	77.0	78.7	74	68.1	0	1	292	0.00	30.015 
03:10	77.0	77.0	78.7	74	68.1	0	1	292	0.00	30.015 
03:15	77.0	77.0	78.7	74	68.1	0	1	292	0.00	30.017 
03:20	76.8	76.8	78.4	75	68.3	0	1	270	0.00	30.017 
03:25	76.7	76.7	78.3	75	68.2	0	1	270	0.00	30.017 
03:30	76.7	76.7	78.3	75	68.2	0	1	270	0.00	30.020 
03:35	76.7	76.7	78.3	75	68.2	0	1	270	0.00	30.020 
03:40	76.5	76.5	78.0	76	68.4	0	1	270	0.00	30.020 
03:45	76.5	76.5	78.0	76	68.4	0	0	---	0.00	30.018 
03:50	76.5	76.5	78.0	76	68.4	0	1	270	0.00	30.018 
03:55	76.5	76.5	78.0	76	68.4	0	1	270	0.00	30.018 
04:00	76.5	76.5	78.0	76	68.4	0	1	270	0.00	30.012 
04:05	76.7	76.7	78.2	76	68.5	0	2	270	0.00	30.012 
04:10	76.7	76.7	78.3	75	68.2	0	1	338	0.00	30.012 
04:15	76.8	76.8	78.4	75	68.3	0	2	338	0.00	30.009 
04:20	76.8	76.8	78.4	75	68.3	0	2	338	0.00	30.009 
04:25	76.8	76.8	78.4	75	68.3	0	1	338	0.00	30.009 
04:30	76.8	76.8	78.4	75	68.3	0	2	338	0.00	30.009 
04:35	76.8	76.8	78.4	75	68.3	0	0	---	0.00	30.009 
04:40	76.8	76.8	78.4	75	68.3	0	1	338	0.00	30.009 
04:45	76.8	76.8	78.4	75	68.3	0	1	338	0.00	30.010 
04:50	76.8	76.8	78.4	75	68.3	0	2	338	0.00	30.010 
04:55	76.8	76.8	78.4	75	68.3	0	1	338	0.00	30.010 
05:00	76.8	76.8	78.4	75	68.3	0	1	315	0.00	30.010 
05:05	76.8	76.8	78.4	75	68.3	0	1	315	0.00	30.010 
05:10	76.7	76.7	78.3	75	68.2	0	1	315	0.00	30.010 
05:15	76.7	76.7	78.3	75	68.2	0	1	315	0.00	30.011 
05:20	76.7	76.7	78.2	76	68.5	0	1	315	0.00	30.011 
05:25	76.5	76.5	78.0	76	68.4	0	1	315	0.00	30.011 
05:30	76.5	76.5	78.0	76	68.4	0	1	315	0.00	30.013 
05:35	76.5	76.5	78.0	76	68.4	0	1	315	0.00	30.013 
05:40	76.3	76.3	77.7	76	68.2	0	1	315	0.00	30.013 
05:45	76.3	76.3	77.7	76	68.2	0	1	315	0.00	30.012 
05:50	76.3	76.3	77.7	76	68.2	0	1	315	0.00	30.012 
05:55	76.3	76.3	77.7	76	68.2	0	2	315	0.00	30.012 
06:00	76.3	76.3	77.7	76	68.2	0	0	---	0.00	30.014 
06:05	76.3	76.3	77.7	76	68.2	0	1	315	0.00	30.014 
06:10	76.3	76.3	77.7	76	68.2	0	1	315	0.00	30.014 
06:15	76.3	76.3	77.7	76	68.2	0	1	315	0.00	30.020 
06:20	76.1	76.1	77.4	77	68.3	0	1	315	0.00	30.020 
06:25	76.0	76.0	77.2	77	68.3	0	1	315	0.00	30.020 
06:30	75.8	75.8	77.0	77	68.1	0	1	315	0.00	30.021 
06:35	75.6	75.6	76.7	77	67.9	0	1	315	0.00	30.021 
06:40	75.6	75.6	76.7	77	67.9	0	0	---	0.00	30.021 
06:45	75.4	75.4	76.4	77	67.7	0	1	315	0.00	30.022 
06:50	75.4	75.4	76.4	77	67.7	0	1	315	0.00	30.022 
06:55	75.4	75.4	76.4	77	67.7	0	1	315	0.00	30.022 
07:00	75.3	75.3	76.3	77	67.6	0	1	315	0.00	30.025 
07:05	75.3	75.3	76.2	78	68.0	0	1	315	0.00	30.025 
07:10	75.3	75.3	76.2	78	68.0	0	1	315	0.00	30.025 
07:15	75.3	75.3	76.2	78	68.0	0	1	315	0.00	30.030 
07:20	75.1	75.1	76.0	78	67.8	0	0	---	0.00	30.030 
07:25	75.1	75.1	76.0	78	67.8	0	0	---	0.00	30.030 
07:30	74.9	74.9	74.9	78	67.6	0	0	---	0.00	30.035 
07:35	74.9	74.9	74.9	78	67.6	0	1	315	0.00	30.035 
07:40	74.7	74.7	74.7	79	67.7	0	1	315	0.00	30.035 
07:45	74.7	74.7	74.7	79	67.7	0	0	---	0.00	30.040 
07:50	74.6	74.6	74.6	79	67.6	0	1	315	0.00	30.040 
07:55	74.4	74.4	74.4	80	67.8	0	0	---	0.00	30.040 
08:00	74.2	74.2	74.2	80	67.6	0	1	315	0.00	30.047 
08:05	74.2	74.2	74.2	80	67.6	0	0	---	0.00	30.047 
08:10	74.0	74.0	74.0	81	67.8	0	1	315	0.00	30.047 
08:15	74.0	74.0	74.0	81	67.8	0	1	315	0.00	30.049 
08:20	74.0	74.0	74.0	81	67.8	0	1	315	0.00	30.049 
08:25	74.2	74.2	74.2	81	68.0	0	1	315	0.00	30.049 
08:30	74.2	74.2	74.2	81	68.0	0	1	315	0.00	30.051 
08:35	74.4	74.4	74.4	81	68.2	0	1	315	0.00	30.051 
08:40	74.6	74.6	74.6	81	68.4	0	1	315	0.00	30.051 
08:45	74.9	74.9	74.9	80	68.3	0	1	22	0.00	30.050 
08:50	75.1	75.1	75.7	80	68.5	0	1	22	0.00	30.050 
08:55	75.3	75.3	76.0	80	68.7	0	1	22	0.00	30.050 
09:00	75.4	75.4	76.1	80	68.8	0	2	338	0.00	30.051 
09:05	75.6	75.6	76.4	80	69.0	0	4	338	0.00	30.051 
09:10	75.8	75.8	76.8	79	68.8	1	2	248	0.00	30.051 
09:15	76.0	76.0	77.1	79	69.0	0	1	248	0.00	30.055 
09:20	76.0	76.0	77.1	79	69.0	0	2	248	0.00	30.055 
09:25	76.1	76.1	77.2	79	69.1	1	2	248	0.00	30.055 
09:30	76.1	76.1	77.3	78	68.7	0	2	338	0.00	30.051 
09:35	76.3	76.3	77.6	78	68.9	1	3	315	0.00	30.051 
09:40	76.5	76.5	77.9	78	69.1	0	3	292	0.00	30.051 
09:45	76.7	76.7	78.2	78	69.3	0	3	292	0.00	30.048 
09:50	77.0	77.0	78.7	77	69.2	1	5	292	0.00	30.048 
09:55	77.2	77.2	79.0	77	69.4	1	2	270	0.00	30.048 
10:00	77.4	77.4	79.3	76	69.2	1	3	270	0.00	30.048 
10:05	77.6	77.6	79.6	76	69.4	1	3	270	0.00	30.048 
10:10	77.9	77.9	80.0	75	69.3	0	2	270	0.00	30.048 
10:15	78.5	78.5	80.9	74	69.5	1	2	270	0.00	30.048 
10:20	78.8	78.8	81.3	72	69.0	1	3	270	0.00	30.048 
10:25	79.2	79.2	81.9	72	69.4	1	2	270	0.00	30.048 
10:30	79.8	79.8	82.7	71	69.5	0	3	270	0.00	30.043 
10:35	80.5	80.5	83.6	69	69.4	1	3	270	0.00	30.043 
10:40	81.1	81.1	84.3	67	69.1	1	4	270	0.00	30.043 
10:45	81.6	81.6	84.7	65	68.7	1	3	270	0.00	30.039 
10:50	82.0	82.0	85.4	65	69.0	1	3	270	0.00	30.039 
10:55	82.8	82.8	86.5	64	69.3	1	4	270	0.00	30.039 
11:00	83.4	83.4	87.0	62	69.0	1	3	270	0.00	30.035 
11:05	83.8	83.8	87.7	62	69.4	1	3	270	0.00	30.035 
11:10	84.3	84.3	88.0	60	68.9	1	2	270	0.00	30.035 
11:15	84.7	84.7	88.4	59	68.8	1	2	315	0.00	30.032 
11:20	85.1	85.1	88.8	58	68.6	1	3	270	0.00	30.032 
11:25	85.7	85.7	89.9	58	69.2	1	3	270	0.00	30.032 
11:30	86.1	86.1	90.2	57	69.1	1	3	270	0.00	30.027 
11:35	86.7	86.7	91.3	57	69.6	0	1	270	0.00	30.027 
11:40	87.6	87.6	91.8	54	68.9	1	3	270	0.00	30.027 
11:45	87.6	87.6	91.5	53	68.3	1	3	270	0.00	30.024 
11:50	88.0	88.0	92.2	53	68.7	1	3	270	0.00	30.024 
11:55	88.8	88.8	93.2	52	68.9	1	2	45	0.00	30.024 
12:00	89.9	89.9	94.4	50	68.7	0	2	0	0.00	30.014 
12:05	90.5	90.5	95.1	49	68.7	1	3	338	0.00	30.014 
12:10	90.5	90.5	94.6	48	68.1	1	3	315	0.00	30.014 
12:15	90.7	90.7	94.5	47	67.7	1	2	315	0.00	30.010 
12:20	91.0	91.0	94.6	46	67.3	1	3	315	0.00	30.010 
12:25	91.2	91.2	95.0	46	67.5	1	3	248	0.00	30.010 
12:30	91.4	91.4	96.3	48	68.9	1	2	248	0.00	30.007 
12:35	91.8	91.8	95.6	45	67.4	1	3	292	0.00	30.007 
12:40	91.6	91.6	94.8	44	66.6	2	4	292	0.00	30.007 
12:45	91.8	91.8	95.6	45	67.4	1	3	292	0.00	30.004 
12:50	91.8	91.8	95.2	44	66.7	1	3	315	0.00	30.004 
12:55	92.1	92.1	95.7	44	67.0	1	2	315	0.00	30.004 
13:00	92.3	92.3	95.6	43	66.5	1	4	270	0.00	29.999 
13:05	92.7	92.7	96.8	44	67.5	1	3	292	0.00	29.999 
13:10	93.2	93.2	96.7	42	66.6	1	4	292	0.00	29.999 
13:15	93.2	93.2	96.7	42	66.6	1	2	292	0.00	29.995 
13:20	93.4	93.4	96.6	41	66.1	2	5	292	0.00	29.995 
13:25	93.4	93.4	95.7	39	64.7	2	5	292	0.00	29.995 
13:30	92.7	92.7	94.5	39	64.1	3	5	270	0.00	29.994 
13:35	92.7	92.7	94.9	40	64.8	1	4	270	0.00	29.994 
13:40	93.4	93.4	95.7	39	64.7	1	3	270	0.00	29.994 
13:45	93.8	93.8	95.4	37	63.5	2	5	270	0.00	29.985 
13:50	93.6	93.6	94.3	35	61.8	2	5	270	0.00	29.985 
13:55	93.4	93.4	94.8	37	63.2	2	6	270	0.00	29.985 
14:00	93.2	93.2	94.1	36	62.2	3	5	270	0.00	29.982 
14:05	92.9	92.9	94.4	38	63.5	3	6	270	0.00	29.982 
14:10	93.6	93.6	95.1	37	63.4	2	5	270	0.00	29.982 
14:15	93.6	93.6	93.9	34	61.0	2	6	248	0.00	29.980 
14:20	92.7	92.7	93.3	36	61.8	2	4	248	0.00	29.980 
14:25	92.1	92.1	92.8	37	62.0	2	4	248	0.00	29.980 
14:30	91.8	91.8	93.1	39	63.3	1	4	248	0.00	29.979 
14:35	91.8	91.8	93.1	39	63.3	1	3	270	0.00	29.979 
14:40	91.6	91.6	92.7	39	63.1	3	6	270	0.00	29.979 
14:45	92.1	92.1	92.8	37	62.0	2	5	338	0.00	29.969 
14:50	92.7	92.7	93.3	36	61.8	2	5	270	0.00	29.969 
14:55	93.8	93.8	93.8	33	60.3	3	7	270	0.00	29.969 
15:00	94.3	94.3	94.1	32	59.9	2	6	270	0.00	29.963 
15:05	94.9	94.9	95.9	34	62.1	1	3	270	0.00	29.963 
15:10	95.1	95.1	94.9	31	59.7	1	4	270	0.00	29.963 
15:15	94.5	94.5	94.4	32	60.0	3	4	270	0.00	29.962 
15:20	93.8	93.8	94.2	34	61.1	2	4	270	0.00	29.962 
15:25	93.2	93.2	93.3	34	60.6	2	6	270	0.00	29.962 
15:30	93.4	93.4	93.6	34	60.8	2	4	270	0.00	29.955 
15:35	93.8	93.8	93.8	33	60.3	1	3	270	0.00	29.955 
15:40	94.3	94.3	94.1	32	59.9	2	6	270	0.00	29.955 
15:45	94.7	94.7	94.4	31	59.3	2	4	270	0.00	29.947 
15:50	94.7	94.7	94.7	32	60.2	2	4	292	0.00	29.947 
15:55	94.7	94.7	94.7	32	60.2	1	4	270	0.00	29.947 
16:00	94.9	94.9	94.6	31	59.5	2	6	292	0.00	29.945 
16:05	94.7	94.7	94.0	30	58.4	1	4	292	0.00	29.945 
16:10	93.6	93.6	93.1	32	59.2	2	7	292	0.00	29.945 
16:15	93.6	93.6	93.5	33	60.1	2	5	292	0.00	29.934 
16:20	94.0	94.0	93.7	32	59.6	2	4	292	0.00	29.934 
16:25	93.8	93.8	93.8	33	60.3	3	6	270	0.00	29.934 
16:30	94.0	94.0	94.1	33	60.5	1	3	270	0.00	29.931 
16:35	93.8	93.8	93.8	33	60.3	1	4	270	0.00	29.931 
16:40	93.4	93.4	93.6	34	60.8	1	3	248	0.00	29.931 
16:45	93.6	93.6	93.5	33	60.1	2	7	270	0.00	29.930 
16:50	93.8	93.8	93.8	33	60.3	1	4	270	0.00	29.930 
16:55	93.8	93.8	93.8	33	60.3	1	3	270	0.00	29.930 
17:00	93.6	93.6	93.5	33	60.1	1	4	270	0.00	29.918 
17:05	93.8	93.8	93.8	33	60.3	1	3	270	0.00	29.918 
17:10	94.0	94.0	93.7	32	59.6	2	5	270	0.00	29.918 
17:15	94.3	94.3	94.1	32	59.9	1	3	315	0.00	29.916 
17:20	94.0	94.0	93.7	32	59.6	1	4	270	0.00	29.916 
17:25	93.8	93.8	93.8	33	60.3	2	6	270	0.00	29.916 
17:30	93.6	93.6	93.5	33	60.1	2	5	292	0.00	29.916 
17:35	93.6	93.6	93.5	33	60.1	2	6	270	0.00	29.916 
17:40	93.4	93.4	93.6	34	60.8	2	6	248	0.00	29.916 
17:45	92.9	92.9	92.8	34	60.3	2	5	292	0.00	29.917 
17:50	92.9	92.9	93.2	35	61.2	2	5	292	0.00	29.917 
17:55	92.9	92.9	93.2	35	61.2	1	4	270	0.00	29.917 
18:00	92.5	92.5	92.6	35	60.8	2	4	292	0.00	29.918 
18:05	92.3	92.3	92.3	35	60.6	1	4	292	0.00	29.918 
18:10	92.3	92.3	92.3	35	60.6	1	4	292	0.00	29.918 
18:15	92.3	92.3	92.7	36	61.4	1	3	270	0.00	29.919 
18:20	92.5	92.5	93.0	36	61.6	2	5	270	0.00	29.919 
18:25	92.3	92.3	92.7	36	61.4	1	2	270	0.00	29.919 
18:30	91.8	91.8	92.3	37	61.8	1	4	270	0.00	29.923 
18:35	91.4	91.4	92.1	38	62.2	0	2	270	0.00	29.923 
18:40	91.0	91.0	91.5	38	61.8	1	2	270	0.00	29.923 
18:45	90.5	90.5	91.1	39	62.1	0	2	270	0.00	29.920 
18:50	90.3	90.3	90.8	39	61.9	1	5	270	0.00	29.920 
18:55	90.1	90.1	90.5	39	61.8	1	4	270	0.00	29.920 
19:00	90.1	90.1	90.5	39	61.8	1	3	292	0.00	29.921 
19:05	89.9	89.9	90.5	40	62.3	0	2	292	0.00	29.921 
19:10	89.9	89.9	90.2	39	61.6	0	2	315	0.00	29.921 
19:15	89.7	89.7	90.2	40	62.1	0	2	315	0.00	29.922 
19:20	89.7	89.7	90.2	40	62.1	0	2	315	0.00	29.922 
19:25	89.5	89.5	90.0	40	61.9	0	1	315	0.00	29.922 
19:30	89.5	89.5	90.0	40	61.9	0	1	315	0.00	29.921 
19:35	89.3	89.3	89.7	40	61.8	0	2	315	0.00	29.921 
19:40	89.3	89.3	89.7	40	61.8	0	1	315	0.00	29.921 
19:45	89.0	89.0	89.3	40	61.5	0	1	315	0.00	29.924 
19:50	88.8	88.8	89.3	41	62.0	1	4	315	0.00	29.924 
19:55	87.6	87.6	89.4	47	64.8	3	9	315	0.00	29.924 
20:00	85.7	85.7	87.4	50	64.9	2	6	338	0.00	29.938 
20:05	84.5	84.5	86.5	53	65.5	2	4	315	0.00	29.938 
20:10	83.6	83.6	85.5	54	65.2	1	3	315	0.00	29.938 
20:15	83.0	83.0	85.1	56	65.7	1	2	315	0.00	29.948 
20:20	82.2	82.2	84.3	58	65.9	1	5	338	0.00	29.948 
20:25	81.6	81.6	83.7	59	65.9	1	5	270	0.00	29.948 
20:30	81.1	81.1	83.3	61	66.4	0	2	315	0.00	29.954 
20:35	80.7	80.7	82.9	62	66.4	0	1	315	0.00	29.954 
20:40	80.3	80.3	82.4	62	66.1	0	1	315	0.00	29.954 
20:45	80.1	80.1	82.3	63	66.3	0	1	315	0.00	29.957 
20:50	79.8	79.8	82.0	64	66.5	0	1	315	0.00	29.957 
20:55	79.6	79.6	81.8	65	66.8	0	0	---	0.00	29.957 
21:00	79.2	79.2	81.3	65	66.4	0	0	---	0.00	29.960 
21:05	79.0	79.0	81.1	66	66.6	0	0	---	0.00	29.960 
21:10	78.8	78.8	80.9	67	66.9	0	1	315	0.00	29.960 
21:15	78.5	78.5	80.5	67	66.6	0	0	---	0.00	29.959 
21:20	78.3	78.3	80.3	68	66.8	0	0	---	0.00	29.959 
21:25	78.1	78.1	80.1	69	67.1	0	0	---	0.00	29.959 
21:30	77.9	77.9	79.9	70	67.3	0	0	---	0.00	29.966 
21:35	77.7	77.7	79.6	70	67.1	0	0	---	0.00	29.966 
21:40	77.4	77.4	79.3	71	67.2	0	0	---	0.00	29.966 
21:45	77.2	77.2	79.0	72	67.5	0	0	---	0.00	29.969 
21:50	77.0	77.0	78.7	72	67.3	0	0	---	0.00	29.969 
21:55	76.8	76.8	78.5	73	67.5	0	0	---	0.00	29.969 
22:00	76.5	76.5	78.1	74	67.6	0	0	---	0.00	29.963 
22:05	76.3	76.3	77.8	74	67.4	0	0	---	0.00	29.963 
22:10	76.0	76.0	77.4	75	67.5	0	0	---	0.00	29.963 
22:15	75.8	75.8	77.0	76	67.7	0	0	---	0.00	29.961 
22:20	75.6	75.6	76.7	77	67.9	0	0	---	0.00	29.961 
22:25	75.3	75.3	76.3	77	67.6	0	0	---	0.00	29.961 
22:30	75.1	75.1	76.1	77	67.4	0	0	---	0.00	29.969 
22:35	74.9	74.9	74.9	78	67.6	0	0	---	0.00	29.969 
22:40	74.7	74.7	74.7	79	67.7	0	0	---	0.00	29.969 
22:45	74.6	74.6	74.6	79	67.6	0	0	---	0.00	29.969 
22:50	74.4	74.4	74.4	79	67.4	0	0	---	0.00	29.969 
22:55	74.2	74.2	74.2	80	67.6	0	0	---	0.00	29.969 
23:00	74.0	74.0	74.0	80	67.4	0	0	---	0.00	29.971 
23:05	74.0	74.0	74.0	81	67.8	0	0	---	0.00	29.971 
23:10	73.9	73.9	73.9	81	67.7	0	0	---	0.00	29.971 
23:15	73.9	73.9	73.9	81	67.7	0	0	---	0.00	29.957 
23:20	73.7	73.7	73.7	81	67.5	0	0	---	0.00	29.957 
23:25	73.9	73.9	73.9	82	68.0	0	0	---	0.00	29.957 
23:30	73.9	73.9	73.9	81	67.7	0	0	---	0.00	29.957 
23:35	73.9	73.9	73.9	82	68.0	0	0	---	0.00	29.957 
23:40	73.7	73.7	73.7	82	67.9	0	0	---	0.00	29.957 
23:45	73.7	73.7	73.7	82	67.9	0	0	---	0.00	29.959 
23:50	73.9	73.9	73.9	82	68.0	0	0	---	0.00	29.959 
23:55	73.9	73.9	73.9	82	68.0	0	0	---	0.00	29.959 

CoCoRaHS
IN-AL-39
A2 Web Hosting
Creative Commons License
GoDaddy
search engine by freefind advanced

loaded 2018-11-20 03:20:28 • last modified 2010-11-18 10:43:29
Privacy PolicyDisclaimer
• wx.awcolley.com is powered by PmWiki v.2002016 •
• all content (unless otherwise noted) © 2018 A W Colley